Terminal Aerodrome Forecast
Issued by NWS

Home | Current Version | Previous Version | Text Only | Print | Product List | Glossary On
Versions: 1 2 3 4 5 6 7 8 9 10 11 12 13 14 15 16 17
000
FTUS41 KBTV 240530
TAFMSS
TAF
KMSS 240530Z 2406/2506 31005KT P6SM SKC
      TEMPO 2408/2411 1SM BR BKN002
     FM241300 26005KT P6SM SKC=

USA.gov is the U.S. government's official web portal to all federal, state and local government web resources and services.